sensor_id;sensor_type;location;lat;lon;timestamp;temperature;humidity
6738;DHT22;3406;49.902;8.596;2023-04-24T00:00:03;12.60;91.90
6738;DHT22;3406;49.902;8.596;2023-04-24T00:02:30;12.60;92.00
6738;DHT22;3406;49.902;8.596;2023-04-24T00:04:58;12.60;92.00
6738;DHT22;3406;49.902;8.596;2023-04-24T00:07:27;12.50;92.00
6738;DHT22;3406;49.902;8.596;2023-04-24T00:09:54;12.50;92.00
6738;DHT22;3406;49.902;8.596;2023-04-24T00:12:21;12.50;92.10
6738;DHT22;3406;49.902;8.596;2023-04-24T00:14:49;12.50;92.20
6738;DHT22;3406;49.902;8.596;2023-04-24T00:17:16;12.50;92.20
6738;DHT22;3406;49.902;8.596;2023-04-24T00:19:45;12.50;92.20
6738;DHT22;3406;49.902;8.596;2023-04-24T00:22:11;12.50;92.20
6738;DHT22;3406;49.902;8.596;2023-04-24T00:24:38;12.50;92.20
6738;DHT22;3406;49.902;8.596;2023-04-24T00:27:05;12.50;92.20
6738;DHT22;3406;49.902;8.596;2023-04-24T00:29:31;12.50;92.20
6738;DHT22;3406;49.902;8.596;2023-04-24T00:31:59;12.50;92.20
6738;DHT22;3406;49.902;8.596;2023-04-24T00:34:26;12.50;92.20
6738;DHT22;3406;49.902;8.596;2023-04-24T00:36:53;12.50;92.10
6738;DHT22;3406;49.902;8.596;2023-04-24T00:39:20;12.50;92.20
6738;DHT22;3406;49.902;8.596;2023-04-24T00:41:47;12.50;92.20
6738;DHT22;3406;49.902;8.596;2023-04-24T00:44:14;12.50;92.20
6738;DHT22;3406;49.902;8.596;2023-04-24T00:46:41;12.50;92.20
6738;DHT22;3406;49.902;8.596;2023-04-24T00:49:09;12.50;92.20
6738;DHT22;3406;49.902;8.596;2023-04-24T00:51:37;12.50;92.20
6738;DHT22;3406;49.902;8.596;2023-04-24T00:54:03;12.40;92.20
6738;DHT22;3406;49.902;8.596;2023-04-24T00:56:30;12.40;92.30
6738;DHT22;3406;49.902;8.596;2023-04-24T00:58:57;12.30;92.60
6738;DHT22;3406;49.902;8.596;2023-04-24T01:01:24;12.30;92.50
6738;DHT22;3406;49.902;8.596;2023-04-24T01:03:51;12.30;92.60
6738;DHT22;3406;49.902;8.596;2023-04-24T01:06:20;12.20;92.60
6738;DHT22;3406;49.902;8.596;2023-04-24T01:08:48;12.20;92.80
6738;DHT22;3406;49.902;8.596;2023-04-24T01:11:15;12.20;92.80
6738;DHT22;3406;49.902;8.596;2023-04-24T01:13:41;12.30;92.90
6738;DHT22;3406;49.902;8.596;2023-04-24T01:16:08;12.30;93.00
6738;DHT22;3406;49.902;8.596;2023-04-24T01:18:35;12.30;93.00
6738;DHT22;3406;49.902;8.596;2023-04-24T01:21:04;12.30;93.10
6738;DHT22;3406;49.902;8.596;2023-04-24T01:23:32;12.30;93.10
6738;DHT22;3406;49.902;8.596;2023-04-24T01:25:58;12.30;93.20
6738;DHT22;3406;49.902;8.596;2023-04-24T01:28:25;12.20;93.10
6738;DHT22;3406;49.902;8.596;2023-04-24T01:30:52;12.20;93.10
6738;DHT22;3406;49.902;8.596;2023-04-24T01:33:21;12.20;93.20
6738;DHT22;3406;49.902;8.596;2023-04-24T01:35:48;12.20;93.30
6738;DHT22;3406;49.902;8.596;2023-04-24T01:38:16;12.10;93.40
6738;DHT22;3406;49.902;8.596;2023-04-24T01:40:44;12.10;93.40
6738;DHT22;3406;49.902;8.596;2023-04-24T01:43:11;12.20;93.50
6738;DHT22;3406;49.902;8.596;2023-04-24T01:45:38;12.20;93.60
6738;DHT22;3406;49.902;8.596;2023-04-24T01:48:05;12.20;93.60
6738;DHT22;3406;49.902;8.596;2023-04-24T01:50:32;12.20;93.60
6738;DHT22;3406;49.902;8.596;2023-04-24T01:52:58;12.20;93.70
6738;DHT22;3406;49.902;8.596;2023-04-24T01:55:25;12.20;93.80
6738;DHT22;3406;49.902;8.596;2023-04-24T01:57:55;12.20;93.80
6738;DHT22;3406;49.902;8.596;2023-04-24T02:00:22;12.20;93.80
6738;DHT22;3406;49.902;8.596;2023-04-24T02:02:49;12.20;93.80
6738;DHT22;3406;49.902;8.596;2023-04-24T02:05:16;12.20;93.80
6738;DHT22;3406;49.902;8.596;2023-04-24T02:07:42;12.20;93.90
6738;DHT22;3406;49.902;8.596;2023-04-24T02:10:10;12.20;93.80
6738;DHT22;3406;49.902;8.596;2023-04-24T02:12:36;12.30;93.90
6738;DHT22;3406;49.902;8.596;2023-04-24T02:15:05;12.20;93.80
6738;DHT22;3406;49.902;8.596;2023-04-24T02:17:32;12.20;93.80
6738;DHT22;3406;49.902;8.596;2023-04-24T02:19:59;12.20;93.90
6738;DHT22;3406;49.902;8.596;2023-04-24T02:22:25;12.20;93.90
6738;DHT22;3406;49.902;8.596;2023-04-24T02:24:52;12.20;94.00
6738;DHT22;3406;49.902;8.596;2023-04-24T02:27:18;12.20;94.00
6738;DHT22;3406;49.902;8.596;2023-04-24T02:29:45;12.20;94.10
6738;DHT22;3406;49.902;8.596;2023-04-24T02:32:13;12.10;94.10
6738;DHT22;3406;49.902;8.596;2023-04-24T02:34:41;12.10;94.20
6738;DHT22;3406;49.902;8.596;2023-04-24T02:37:07;12.10;94.20
6738;DHT22;3406;49.902;8.596;2023-04-24T02:39:34;12.10;94.20
6738;DHT22;3406;49.902;8.596;2023-04-24T02:42:00;12.10;94.40
6738;DHT22;3406;49.902;8.596;2023-04-24T02:44:27;12.10;94.50
6738;DHT22;3406;49.902;8.596;2023-04-24T02:46:54;12.10;94.60
6738;DHT22;3406;49.902;8.596;2023-04-24T02:49:22;12.10;94.60
6738;DHT22;3406;49.902;8.596;2023-04-24T02:51:48;12.10;94.60
6738;DHT22;3406;49.902;8.596;2023-04-24T02:54:15;12.10;94.70
6738;DHT22;3406;49.902;8.596;2023-04-24T02:56:42;12.00;95.10
6738;DHT22;3406;49.902;8.596;2023-04-24T02:59:08;12.10;94.90
6738;DHT22;3406;49.902;8.596;2023-04-24T03:01:35;12.00;94.90
6738;DHT22;3406;49.902;8.596;2023-04-24T03:04:02;12.10;94.90
6738;DHT22;3406;49.902;8.596;2023-04-24T03:06:30;12.00;95.00
6738;DHT22;3406;49.902;8.596;2023-04-24T03:08:58;12.00;95.10
6738;DHT22;3406;49.902;8.596;2023-04-24T03:11:24;12.00;95.10
6738;DHT22;3406;49.902;8.596;2023-04-24T03:13:51;12.00;95.20
6738;DHT22;3406;49.902;8.596;2023-04-24T03:16:18;12.00;95.30
6738;DHT22;3406;49.902;8.596;2023-04-24T03:18:44;12.00;95.40
6738;DHT22;3406;49.902;8.596;2023-04-24T03:21:11;12.00;95.50
6738;DHT22;3406;49.902;8.596;2023-04-24T03:23:39;12.00;95.60
6738;DHT22;3406;49.902;8.596;2023-04-24T03:26:06;12.00;95.80
6738;DHT22;3406;49.902;8.596;2023-04-24T03:28:32;11.90;95.80
6738;DHT22;3406;49.902;8.596;2023-04-24T03:30:59;11.90;96.00
6738;DHT22;3406;49.902;8.596;2023-04-24T03:33:26;11.90;96.10
6738;DHT22;3406;49.902;8.596;2023-04-24T03:35:52;11.90;96.30
6738;DHT22;3406;49.902;8.596;2023-04-24T03:38:19;11.80;96.60
6738;DHT22;3406;49.902;8.596;2023-04-24T03:40:47;11.80;96.70
6738;DHT22;3406;49.902;8.596;2023-04-24T03:43:13;11.70;96.90
6738;DHT22;3406;49.902;8.596;2023-04-24T03:45:40;11.70;97.00
6738;DHT22;3406;49.902;8.596;2023-04-24T03:48:07;11.70;97.20
6738;DHT22;3406;49.902;8.596;2023-04-24T03:50:34;11.60;97.30
6738;DHT22;3406;49.902;8.596;2023-04-24T03:53:00;11.60;97.40
6738;DHT22;3406;49.902;8.596;2023-04-24T03:55:27;11.60;97.50
6738;DHT22;3406;49.902;8.596;2023-04-24T03:57:55;11.50;97.70
6738;DHT22;3406;49.902;8.596;2023-04-24T04:00:21;11.50;97.80
6738;DHT22;3406;49.902;8.596;2023-04-24T04:02:48;11.50;97.90
6738;DHT22;3406;49.902;8.596;2023-04-24T04:05:15;11.40;97.90
6738;DHT22;3406;49.902;8.596;2023-04-24T04:07:41;11.40;98.00
6738;DHT22;3406;49.902;8.596;2023-04-24T04:10:08;11.40;98.00
6738;DHT22;3406;49.902;8.596;2023-04-24T04:12:35;11.30;98.00
6738;DHT22;3406;49.902;8.596;2023-04-24T04:15:03;11.30;98.00
6738;DHT22;3406;49.902;8.596;2023-04-24T04:17:31;11.30;98.00
6738;DHT22;3406;49.902;8.596;2023-04-24T04:19:58;11.30;97.90
6738;DHT22;3406;49.902;8.596;2023-04-24T04:22:24;11.20;97.80
6738;DHT22;3406;49.902;8.596;2023-04-24T04:24:51;11.20;97.90
6738;DHT22;3406;49.902;8.596;2023-04-24T04:27:18;11.20;97.70
6738;DHT22;3406;49.902;8.596;2023-04-24T04:29:46;11.10;97.70
6738;DHT22;3406;49.902;8.596;2023-04-24T04:32:15;11.00;97.60
6738;DHT22;3406;49.902;8.596;2023-04-24T04:34:42;11.00;97.60
6738;DHT22;3406;49.902;8.596;2023-04-24T04:37:10;10.90;97.60
6738;DHT22;3406;49.902;8.596;2023-04-24T04:39:37;10.90;97.50
6738;DHT22;3406;49.902;8.596;2023-04-24T04:42:04;10.80;97.50
6738;DHT22;3406;49.902;8.596;2023-04-24T04:44:32;10.80;97.50
6738;DHT22;3406;49.902;8.596;2023-04-24T04:47:01;10.70;97.50
6738;DHT22;3406;49.902;8.596;2023-04-24T04:49:30;10.70;97.40
6738;DHT22;3406;49.902;8.596;2023-04-24T04:51:57;10.70;97.40
6738;DHT22;3406;49.902;8.596;2023-04-24T04:54:24;10.70;97.30
6738;DHT22;3406;49.902;8.596;2023-04-24T04:56:50;10.70;97.10
6738;DHT22;3406;49.902;8.596;2023-04-24T04:59:17;10.70;97.10
6738;DHT22;3406;49.902;8.596;2023-04-24T05:01:44;10.70;97.10
6738;DHT22;3406;49.902;8.596;2023-04-24T05:04:10;10.70;97.00
6738;DHT22;3406;49.902;8.596;2023-04-24T05:06:38;10.80;97.00
6738;DHT22;3406;49.902;8.596;2023-04-24T05:09:05;10.80;96.90
6738;DHT22;3406;49.902;8.596;2023-04-24T05:11:32;10.80;96.90
6738;DHT22;3406;49.902;8.596;2023-04-24T05:13:59;10.80;96.80
6738;DHT22;3406;49.902;8.596;2023-04-24T05:16:26;10.80;96.60
6738;DHT22;3406;49.902;8.596;2023-04-24T05:18:53;10.80;96.50
6738;DHT22;3406;49.902;8.596;2023-04-24T05:21:19;10.90;96.60
6738;DHT22;3406;49.902;8.596;2023-04-24T05:23:47;10.90;96.40
6738;DHT22;3406;49.902;8.596;2023-04-24T05:26:14;11.00;96.40
6738;DHT22;3406;49.902;8.596;2023-04-24T05:28:41;11.00;96.30
6738;DHT22;3406;49.902;8.596;2023-04-24T05:31:07;11.00;96.20
6738;DHT22;3406;49.902;8.596;2023-04-24T05:33:34;11.10;96.10
6738;DHT22;3406;49.902;8.596;2023-04-24T05:36:00;11.10;95.90
6738;DHT22;3406;49.902;8.596;2023-04-24T05:38:27;11.10;95.80
6738;DHT22;3406;49.902;8.596;2023-04-24T05:40:55;11.00;95.80
6738;DHT22;3406;49.902;8.596;2023-04-24T05:43:21;11.10;95.90
6738;DHT22;3406;49.902;8.596;2023-04-24T05:45:48;11.20;95.80
6738;DHT22;3406;49.902;8.596;2023-04-24T05:48:15;11.30;95.60
6738;DHT22;3406;49.902;8.596;2023-04-24T05:50:42;11.30;95.30
6738;DHT22;3406;49.902;8.596;2023-04-24T05:53:08;11.40;95.00
6738;DHT22;3406;49.902;8.596;2023-04-24T05:55:36;11.50;94.70
6738;DHT22;3406;49.902;8.596;2023-04-24T05:58:04;11.50;94.50
6738;DHT22;3406;49.902;8.596;2023-04-24T06:00:30;11.60;94.30
6738;DHT22;3406;49.902;8.596;2023-04-24T06:02:57;11.70;94.10
6738;DHT22;3406;49.902;8.596;2023-04-24T06:05:24;11.70;93.70
6738;DHT22;3406;49.902;8.596;2023-04-24T06:07:51;11.80;93.70
6738;DHT22;3406;49.902;8.596;2023-04-24T06:10:18;11.80;93.40
6738;DHT22;3406;49.902;8.596;2023-04-24T06:12:44;11.80;93.10
6738;DHT22;3406;49.902;8.596;2023-04-24T06:15:12;11.80;92.90
6738;DHT22;3406;49.902;8.596;2023-04-24T06:17:39;11.70;92.60
6738;DHT22;3406;49.902;8.596;2023-04-24T06:20:06;11.70;92.30
6738;DHT22;3406;49.902;8.596;2023-04-24T06:22:33;11.60;92.00
6738;DHT22;3406;49.902;8.596;2023-04-24T06:25:00;11.50;91.70
6738;DHT22;3406;49.902;8.596;2023-04-24T06:27:27;11.40;91.50
6738;DHT22;3406;49.902;8.596;2023-04-24T06:29:54;11.40;91.40
6738;DHT22;3406;49.902;8.596;2023-04-24T06:32:22;11.40;91.30
6738;DHT22;3406;49.902;8.596;2023-04-24T06:34:51;11.40;91.20
6738;DHT22;3406;49.902;8.596;2023-04-24T06:37:18;11.50;91.30
6738;DHT22;3406;49.902;8.596;2023-04-24T06:39:45;11.60;91.10
6738;DHT22;3406;49.902;8.596;2023-04-24T06:42:11;11.70;90.60
6738;DHT22;3406;49.902;8.596;2023-04-24T06:44:38;11.80;90.40
6738;DHT22;3406;49.902;8.596;2023-04-24T06:47:07;11.90;90.20
6738;DHT22;3406;49.902;8.596;2023-04-24T06:49:36;12.00;90.00
6738;DHT22;3406;49.902;8.596;2023-04-24T06:52:03;12.10;89.60
6738;DHT22;3406;49.902;8.596;2023-04-24T06:54:30;12.10;88.80
6738;DHT22;3406;49.902;8.596;2023-04-24T06:56:57;12.00;88.40
6738;DHT22;3406;49.902;8.596;2023-04-24T06:59:24;12.10;88.70
6738;DHT22;3406;49.902;8.596;2023-04-24T07:01:51;12.30;88.90
6738;DHT22;3406;49.902;8.596;2023-04-24T07:04:18;12.40;87.60
6738;DHT22;3406;49.902;8.596;2023-04-24T07:06:46;12.40;87.70
6738;DHT22;3406;49.902;8.596;2023-04-24T07:09:14;12.50;87.10
6738;DHT22;3406;49.902;8.596;2023-04-24T07:11:41;12.40;86.30
6738;DHT22;3406;49.902;8.596;2023-04-24T07:14:08;12.30;86.00
6738;DHT22;3406;49.902;8.596;2023-04-24T07:16:35;12.30;85.80
6738;DHT22;3406;49.902;8.596;2023-04-24T07:19:02;12.20;85.20
6738;DHT22;3406;49.902;8.596;2023-04-24T07:21:28;12.10;84.80
6738;DHT22;3406;49.902;8.596;2023-04-24T07:23:57;12.10;85.00
6738;DHT22;3406;49.902;8.596;2023-04-24T07:26:25;12.20;85.00
6738;DHT22;3406;49.902;8.596;2023-04-24T07:28:52;12.10;84.40
6738;DHT22;3406;49.902;8.596;2023-04-24T07:31:18;12.10;84.10
6738;DHT22;3406;49.902;8.596;2023-04-24T07:33:46;12.10;84.00
6738;DHT22;3406;49.902;8.596;2023-04-24T07:36:13;12.30;83.10
6738;DHT22;3406;49.902;8.596;2023-04-24T07:38:44;12.30;80.10
6738;DHT22;3406;49.902;8.596;2023-04-24T07:41:12;12.40;79.00
6738;DHT22;3406;49.902;8.596;2023-04-24T07:43:39;12.50;77.90
6738;DHT22;3406;49.902;8.596;2023-04-24T07:46:05;12.50;76.50
6738;DHT22;3406;49.902;8.596;2023-04-24T07:48:32;12.50;75.20
6738;DHT22;3406;49.902;8.596;2023-04-24T07:50:59;12.60;75.00
6738;DHT22;3406;49.902;8.596;2023-04-24T07:53:25;12.70;74.90
6738;DHT22;3406;49.902;8.596;2023-04-24T07:55:53;12.80;73.70
6738;DHT22;3406;49.902;8.596;2023-04-24T07:58:21;12.80;73.20
6738;DHT22;3406;49.902;8.596;2023-04-24T08:00:48;12.90;72.70
6738;DHT22;3406;49.902;8.596;2023-04-24T08:03:14;12.90;71.80
6738;DHT22;3406;49.902;8.596;2023-04-24T08:05:44;12.80;71.50
6738;DHT22;3406;49.902;8.596;2023-04-24T08:08:10;12.70;70.40
6738;DHT22;3406;49.902;8.596;2023-04-24T08:10:37;12.70;70.30
6738;DHT22;3406;49.902;8.596;2023-04-24T08:13:03;12.80;69.30
6738;DHT22;3406;49.902;8.596;2023-04-24T08:15:31;12.80;68.60
6738;DHT22;3406;49.902;8.596;2023-04-24T08:17:58;12.90;68.00
6738;DHT22;3406;49.902;8.596;2023-04-24T08:20:25;12.90;67.60
6738;DHT22;3406;49.902;8.596;2023-04-24T08:22:52;12.90;67.50
6738;DHT22;3406;49.902;8.596;2023-04-24T08:25:19;12.90;67.40
6738;DHT22;3406;49.902;8.596;2023-04-24T08:27:46;12.90;67.10
6738;DHT22;3406;49.902;8.596;2023-04-24T08:30:13;13.10;66.50
6738;DHT22;3406;49.902;8.596;2023-04-24T08:32:40;13.20;65.90
6738;DHT22;3406;49.902;8.596;2023-04-24T08:35:08;13.40;65.30
6738;DHT22;3406;49.902;8.596;2023-04-24T08:37:35;13.50;64.40
6738;DHT22;3406;49.902;8.596;2023-04-24T08:40:06;13.60;64.50
6738;DHT22;3406;49.902;8.596;2023-04-24T08:42:37;13.80;64.60
6738;DHT22;3406;49.902;8.596;2023-04-24T08:45:05;13.80;64.00
6738;DHT22;3406;49.902;8.596;2023-04-24T08:47:33;13.90;64.00
6738;DHT22;3406;49.902;8.596;2023-04-24T08:50:03;14.00;63.70
6738;DHT22;3406;49.902;8.596;2023-04-24T08:52:32;13.90;63.60
6738;DHT22;3406;49.902;8.596;2023-04-24T08:55:00;13.70;63.80
6738;DHT22;3406;49.902;8.596;2023-04-24T08:57:26;13.70;64.00
6738;DHT22;3406;49.902;8.596;2023-04-24T08:59:54;13.60;63.50
6738;DHT22;3406;49.902;8.596;2023-04-24T09:02:21;13.40;63.30
6738;DHT22;3406;49.902;8.596;2023-04-24T09:04:48;13.30;63.60
6738;DHT22;3406;49.902;8.596;2023-04-24T09:07:18;13.20;63.90
6738;DHT22;3406;49.902;8.596;2023-04-24T09:09:45;13.20;64.00
6738;DHT22;3406;49.902;8.596;2023-04-24T09:12:12;13.10;64.10
6738;DHT22;3406;49.902;8.596;2023-04-24T09:14:39;13.10;64.40
6738;DHT22;3406;49.902;8.596;2023-04-24T09:17:10;13.10;63.70
6738;DHT22;3406;49.902;8.596;2023-04-24T09:19:37;13.00;63.40
6738;DHT22;3406;49.902;8.596;2023-04-24T09:22:05;13.00;64.30
6738;DHT22;3406;49.902;8.596;2023-04-24T09:24:34;12.90;63.60
6738;DHT22;3406;49.902;8.596;2023-04-24T09:27:01;12.90;63.90
6738;DHT22;3406;49.902;8.596;2023-04-24T09:29:29;12.80;64.00
6738;DHT22;3406;49.902;8.596;2023-04-24T09:31:57;12.80;64.30
6738;DHT22;3406;49.902;8.596;2023-04-24T09:34:25;12.80;64.60
6738;DHT22;3406;49.902;8.596;2023-04-24T09:36:53;12.90;64.90
6738;DHT22;3406;49.902;8.596;2023-04-24T09:39:19;13.00;65.00
6738;DHT22;3406;49.902;8.596;2023-04-24T09:41:50;13.00;64.40
6738;DHT22;3406;49.902;8.596;2023-04-24T09:44:18;13.00;64.40
6738;DHT22;3406;49.902;8.596;2023-04-24T09:46:50;13.00;64.40
6738;DHT22;3406;49.902;8.596;2023-04-24T09:49:21;13.10;64.40
6738;DHT22;3406;49.902;8.596;2023-04-24T09:51:48;13.10;64.50
6738;DHT22;3406;49.902;8.596;2023-04-24T09:54:16;13.00;64.50
6738;DHT22;3406;49.902;8.596;2023-04-24T09:56:44;13.10;64.70
6738;DHT22;3406;49.902;8.596;2023-04-24T09:59:13;13.00;64.70
6738;DHT22;3406;49.902;8.596;2023-04-24T10:01:40;13.10;65.00
6738;DHT22;3406;49.902;8.596;2023-04-24T10:04:15;13.10;65.00
6738;DHT22;3406;49.902;8.596;2023-04-24T10:06:43;13.20;64.80
6738;DHT22;3406;49.902;8.596;2023-04-24T10:09:10;13.20;64.30
6738;DHT22;3406;49.902;8.596;2023-04-24T10:11:41;13.30;64.30
6738;DHT22;3406;49.902;8.596;2023-04-24T10:14:09;13.50;64.20
6738;DHT22;3406;49.902;8.596;2023-04-24T10:16:39;13.50;64.00
6738;DHT22;3406;49.902;8.596;2023-04-24T10:19:07;13.40;64.20
6738;DHT22;3406;49.902;8.596;2023-04-24T10:21:34;13.40;64.60
6738;DHT22;3406;49.902;8.596;2023-04-24T10:24:03;13.30;64.70
6738;DHT22;3406;49.902;8.596;2023-04-24T10:26:30;13.20;65.60
6738;DHT22;3406;49.902;8.596;2023-04-24T10:28:58;13.10;65.20
6738;DHT22;3406;49.902;8.596;2023-04-24T10:31:25;13.10;65.40
6738;DHT22;3406;49.902;8.596;2023-04-24T10:33:54;13.10;65.70
6738;DHT22;3406;49.902;8.596;2023-04-24T10:36:22;13.20;65.90
6738;DHT22;3406;49.902;8.596;2023-04-24T10:38:53;13.40;66.00
6738;DHT22;3406;49.902;8.596;2023-04-24T10:41:20;13.50;65.50
6738;DHT22;3406;49.902;8.596;2023-04-24T10:43:49;13.70;65.40
6738;DHT22;3406;49.902;8.596;2023-04-24T10:46:30;13.80;64.90
6738;DHT22;3406;49.902;8.596;2023-04-24T10:48:58;13.80;64.50
6738;DHT22;3406;49.902;8.596;2023-04-24T10:51:46;13.80;64.30
6738;DHT22;3406;49.902;8.596;2023-04-24T10:54:24;13.80;64.40
6738;DHT22;3406;49.902;8.596;2023-04-24T10:56:51;13.70;64.40
6738;DHT22;3406;49.902;8.596;2023-04-24T10:59:24;13.60;64.40
6738;DHT22;3406;49.902;8.596;2023-04-24T11:01:53;13.50;64.50
6738;DHT22;3406;49.902;8.596;2023-04-24T11:04:32;13.50;64.90
6738;DHT22;3406;49.902;8.596;2023-04-24T11:07:00;13.30;65.80
6738;DHT22;3406;49.902;8.596;2023-04-24T11:09:28;13.20;67.70
6738;DHT22;3406;49.902;8.596;2023-04-24T11:12:03;13.00;69.50
6738;DHT22;3406;49.902;8.596;2023-04-24T11:15:01;12.80;70.60
6738;DHT22;3406;49.902;8.596;2023-04-24T11:17:32;12.50;73.00
6738;DHT22;3406;49.902;8.596;2023-04-24T11:20:03;12.30;74.60
6738;DHT22;3406;49.902;8.596;2023-04-24T11:22:33;12.10;76.70
6738;DHT22;3406;49.902;8.596;2023-04-24T11:25:00;11.80;78.40
6738;DHT22;3406;49.902;8.596;2023-04-24T11:27:30;11.80;80.20
6738;DHT22;3406;49.902;8.596;2023-04-24T11:30:00;11.60;81.70
6738;DHT22;3406;49.902;8.596;2023-04-24T11:32:28;11.50;83.40
6738;DHT22;3406;49.902;8.596;2023-04-24T11:34:57;11.40;84.50
6738;DHT22;3406;49.902;8.596;2023-04-24T11:37:27;11.40;85.80
6738;DHT22;3406;49.902;8.596;2023-04-24T11:39:55;11.30;86.50
6738;DHT22;3406;49.902;8.596;2023-04-24T11:42:22;11.30;87.50
6738;DHT22;3406;49.902;8.596;2023-04-24T11:44:49;11.30;88.20
6738;DHT22;3406;49.902;8.596;2023-04-24T11:47:16;11.30;89.30
6738;DHT22;3406;49.902;8.596;2023-04-24T11:49:43;11.20;89.90
6738;DHT22;3406;49.902;8.596;2023-04-24T11:52:10;11.20;90.30
6738;DHT22;3406;49.902;8.596;2023-04-24T11:54:38;11.20;90.60
6738;DHT22;3406;49.902;8.596;2023-04-24T11:57:12;11.10;90.90
6738;DHT22;3406;49.902;8.596;2023-04-24T11:59:39;11.00;91.30
6738;DHT22;3406;49.902;8.596;2023-04-24T12:02:06;11.00;91.80
6738;DHT22;3406;49.902;8.596;2023-04-24T12:04:39;11.00;92.00
6738;DHT22;3406;49.902;8.596;2023-04-24T12:07:06;11.00;92.10
6738;DHT22;3406;49.902;8.596;2023-04-24T12:09:45;11.10;92.70
6738;DHT22;3406;49.902;8.596;2023-04-24T12:12:13;11.30;92.70
6738;DHT22;3406;49.902;8.596;2023-04-24T12:14:47;11.50;93.00
6738;DHT22;3406;49.902;8.596;2023-04-24T12:17:15;11.70;92.80
6738;DHT22;3406;49.902;8.596;2023-04-24T12:19:46;11.80;92.60
6738;DHT22;3406;49.902;8.596;2023-04-24T12:22:13;12.10;92.60
6738;DHT22;3406;49.902;8.596;2023-04-24T12:24:56;12.30;92.50
6738;DHT22;3406;49.902;8.596;2023-04-24T12:27:23;12.60;92.30
6738;DHT22;3406;49.902;8.596;2023-04-24T12:29:53;12.70;91.90
6738;DHT22;3406;49.902;8.596;2023-04-24T12:32:21;12.90;91.60
6738;DHT22;3406;49.902;8.596;2023-04-24T12:34:49;13.10;91.10
6738;DHT22;3406;49.902;8.596;2023-04-24T12:37:15;13.20;90.90
6738;DHT22;3406;49.902;8.596;2023-04-24T12:39:58;13.30;90.00
6738;DHT22;3406;49.902;8.596;2023-04-24T12:42:26;13.40;88.90
6738;DHT22;3406;49.902;8.596;2023-04-24T12:44:56;13.60;88.70
6738;DHT22;3406;49.902;8.596;2023-04-24T12:47:25;13.80;88.30
6738;DHT22;3406;49.902;8.596;2023-04-24T12:49:51;13.90;85.70
6738;DHT22;3406;49.902;8.596;2023-04-24T12:52:18;14.00;83.40
6738;DHT22;3406;49.902;8.596;2023-04-24T12:54:46;14.00;81.60
6738;DHT22;3406;49.902;8.596;2023-04-24T12:57:14;14.00;80.20
6738;DHT22;3406;49.902;8.596;2023-04-24T12:59:40;13.90;79.60
6738;DHT22;3406;49.902;8.596;2023-04-24T13:02:07;13.80;79.20
6738;DHT22;3406;49.902;8.596;2023-04-24T13:04:35;13.70;79.10
6738;DHT22;3406;49.902;8.596;2023-04-24T13:07:02;13.70;77.30
6738;DHT22;3406;49.902;8.596;2023-04-24T13:09:29;13.80;74.80
6738;DHT22;3406;49.902;8.596;2023-04-24T13:11:56;14.00;71.20
6738;DHT22;3406;49.902;8.596;2023-04-24T13:14:24;14.10;67.40
6738;DHT22;3406;49.902;8.596;2023-04-24T13:16:51;14.10;66.60
6738;DHT22;3406;49.902;8.596;2023-04-24T13:19:18;14.20;66.00
6738;DHT22;3406;49.902;8.596;2023-04-24T13:21:44;14.30;66.10
6738;DHT22;3406;49.902;8.596;2023-04-24T13:24:11;14.30;65.50
6738;DHT22;3406;49.902;8.596;2023-04-24T13:26:38;14.30;64.90
6738;DHT22;3406;49.902;8.596;2023-04-24T13:29:05;14.30;65.00
6738;DHT22;3406;49.902;8.596;2023-04-24T13:31:32;14.50;64.10
6738;DHT22;3406;49.902;8.596;2023-04-24T13:33:59;14.50;63.30
6738;DHT22;3406;49.902;8.596;2023-04-24T13:36:26;14.60;62.50
6738;DHT22;3406;49.902;8.596;2023-04-24T13:38:52;14.50;62.10
6738;DHT22;3406;49.902;8.596;2023-04-24T13:41:19;14.50;61.60
6738;DHT22;3406;49.902;8.596;2023-04-24T13:43:46;14.40;61.10
6738;DHT22;3406;49.902;8.596;2023-04-24T13:46:12;14.30;60.60
6738;DHT22;3406;49.902;8.596;2023-04-24T13:48:40;14.20;60.30
6738;DHT22;3406;49.902;8.596;2023-04-24T13:51:07;14.20;59.80
6738;DHT22;3406;49.902;8.596;2023-04-24T13:53:33;14.10;60.10
6738;DHT22;3406;49.902;8.596;2023-04-24T13:56:03;14.00;60.40
6738;DHT22;3406;49.902;8.596;2023-04-24T13:58:30;14.00;60.20
6738;DHT22;3406;49.902;8.596;2023-04-24T14:00:57;14.00;59.70
6738;DHT22;3406;49.902;8.596;2023-04-24T14:03:24;14.00;59.40
6738;DHT22;3406;49.902;8.596;2023-04-24T14:05:52;14.00;59.50
6738;DHT22;3406;49.902;8.596;2023-04-24T14:08:19;14.10;59.80
6738;DHT22;3406;49.902;8.596;2023-04-24T14:10:45;14.20;60.50
6738;DHT22;3406;49.902;8.596;2023-04-24T14:13:12;14.30;61.00
6738;DHT22;3406;49.902;8.596;2023-04-24T14:15:39;14.30;60.70
6738;DHT22;3406;49.902;8.596;2023-04-24T14:18:05;14.20;60.60
6738;DHT22;3406;49.902;8.596;2023-04-24T14:20:32;14.20;60.70
6738;DHT22;3406;49.902;8.596;2023-04-24T14:23:00;14.10;60.90
6738;DHT22;3406;49.902;8.596;2023-04-24T14:25:27;14.10;60.30
6738;DHT22;3406;49.902;8.596;2023-04-24T14:27:53;14.10;60.20
6738;DHT22;3406;49.902;8.596;2023-04-24T14:30:20;14.10;59.80
6738;DHT22;3406;49.902;8.596;2023-04-24T14:32:47;14.10;59.60
6738;DHT22;3406;49.902;8.596;2023-04-24T14:35:15;14.10;59.30
6738;DHT22;3406;49.902;8.596;2023-04-24T14:37:41;14.10;59.10
6738;DHT22;3406;49.902;8.596;2023-04-24T14:40:10;14.10;58.90
6738;DHT22;3406;49.902;8.596;2023-04-24T14:42:37;14.10;58.90
6738;DHT22;3406;49.902;8.596;2023-04-24T14:45:04;14.00;58.40
6738;DHT22;3406;49.902;8.596;2023-04-24T14:47:31;14.00;58.20
6738;DHT22;3406;49.902;8.596;2023-04-24T14:49:58;14.10;58.10
6738;DHT22;3406;49.902;8.596;2023-04-24T14:52:25;14.00;58.00
6738;DHT22;3406;49.902;8.596;2023-04-24T14:54:52;14.00;57.70
6738;DHT22;3406;49.902;8.596;2023-04-24T14:57:20;14.00;57.80
6738;DHT22;3406;49.902;8.596;2023-04-24T14:59:46;14.00;58.10
6738;DHT22;3406;49.902;8.596;2023-04-24T15:02:13;14.10;58.60
6738;DHT22;3406;49.902;8.596;2023-04-24T15:04:40;14.10;58.70
6738;DHT22;3406;49.902;8.596;2023-04-24T15:07:06;14.10;58.60
6738;DHT22;3406;49.902;8.596;2023-04-24T15:09:33;14.20;58.60
6738;DHT22;3406;49.902;8.596;2023-04-24T15:11:59;14.20;58.50
6738;DHT22;3406;49.902;8.596;2023-04-24T15:14:28;14.20;58.40
6738;DHT22;3406;49.902;8.596;2023-04-24T15:16:55;14.20;58.50
6738;DHT22;3406;49.902;8.596;2023-04-24T15:19:22;14.30;58.80
6738;DHT22;3406;49.902;8.596;2023-04-24T15:21:48;14.40;59.00
6738;DHT22;3406;49.902;8.596;2023-04-24T15:24:15;14.60;58.70
6738;DHT22;3406;49.902;8.596;2023-04-24T15:26:42;14.80;58.20
6738;DHT22;3406;49.902;8.596;2023-04-24T15:29:08;15.00;57.90
6738;DHT22;3406;49.902;8.596;2023-04-24T15:31:36;15.20;57.40
6738;DHT22;3406;49.902;8.596;2023-04-24T15:34:05;15.20;56.30
6738;DHT22;3406;49.902;8.596;2023-04-24T15:36:32;15.20;56.60
6738;DHT22;3406;49.902;8.596;2023-04-24T15:38:58;15.20;55.90
6738;DHT22;3406;49.902;8.596;2023-04-24T15:41:26;15.20;56.40
6738;DHT22;3406;49.902;8.596;2023-04-24T15:43:53;15.10;56.70
6738;DHT22;3406;49.902;8.596;2023-04-24T15:46:20;15.20;57.00
6738;DHT22;3406;49.902;8.596;2023-04-24T15:48:47;15.30;56.20
6738;DHT22;3406;49.902;8.596;2023-04-24T15:51:14;15.30;55.60
6738;DHT22;3406;49.902;8.596;2023-04-24T15:53:41;15.40;55.40
6738;DHT22;3406;49.902;8.596;2023-04-24T15:56:08;15.50;55.50
6738;DHT22;3406;49.902;8.596;2023-04-24T15:58:35;15.50;55.20
6738;DHT22;3406;49.902;8.596;2023-04-24T16:01:02;15.50;55.40
6738;DHT22;3406;49.902;8.596;2023-04-24T16:03:29;15.60;55.70